Accueil
METAR-TAF:

METAR-TAF

Aéroports :

Lahr, Allemagne

Aéroport de Lahr

latitude: 48-22-09N, longitude: 007-49-40E, altitude: 156 m

Observation

Le bulletin a été fait il y a 3 heures et 39 minutes, à 19:20 UTC
Vent 7 kt de sud
Température 7°C
Humidité 93%
Pression 999 hPa
Visibilité 10 km ou plus
Ciel couvert à une hauteur de 2200 ft
pluie faible

METAR: EDTL 201920Z 17007KT 9999 -RA OVC022 07/06 Q0999

Heure: 23:59 (22:59 UTC)

Prévision

Le bulletin a été fait il y a 2 heures et 59 minutes, à 20:00 UTC
Prévision valable du 20 à 21 UTC au 20 à 24 UTC
Vent 7 kt de sud-ouest
Visibilité 10 km ou plus
Nuages fragmentés à une hauteur de 2000 ft
Probabilité 30% :
Temporairement
du 20 à 21 UTC au 20 à 24 UTC
Visibilité: 4000 m
Nuages fragmentés à une hauteur de 1400 ft
pluie

TAF: EDTL 202000Z 2021/2024 22007KT 9999 BKN020 PROB30 TEMPO 2021/2024 4000 RA BKN014

Observations et prévisions météorologiques de plus de 4000 aéroports (messages METAR et TAF).

Les stations disponibles sont représentées par des disques jaunes et rouges sur la carte.

Passer la souris dessus pour voir le nom de la station.

Cliquer dessus pour voir les observations et prévisions météorologiques.

Pour changer de carte: cliquez sur les boutons verts avec une croix noire pour zoomer, sur le bouton vert avec un tiret pour effectuer un zoom arrière, ou sur les flèches vertes pour les cartes adjacentes.


METAR-TAF: